Miami, Florida
Traffic Map
Current Weather Conditions
Miami, Florida
Broken Clouds
Broken Clouds
27°
Feels Like: 30°
Wind Chill: 27° Ceiling: 6500
Heat Index: 30° Visibility: 10mi
Dew Point: 23° Wind: 10mph
Humidity: 79% Direction: 40° (NE)
Pressure: 30.04in Gusts: 0mph
Raw Report DataKOPF 181653Z 04009KT 10SM SCT022 SCT044 BKN065 27/23 A3004 RMK AO2 SLP173 T02720233
Traffic Incident Summary
Active as of:
Severity:
Category:
InformationThere was an issue retrieving the traffic information for this location. Please try a different location or try again shortly.
Advertisements